createdAt,value
2022-11-24T00:02:40.059Z,5.82
2022-11-24T00:05:42.318Z,5.92
2022-11-24T00:08:45.983Z,5.89
2022-11-24T00:11:48.163Z,5.92
2022-11-24T00:14:50.310Z,5.93
2022-11-24T00:17:52.482Z,5.88
2022-11-24T00:20:54.672Z,5.98
2022-11-24T00:23:57.733Z,5.99
2022-11-24T00:26:59.879Z,6.00
2022-11-24T00:30:02.050Z,5.99
2022-11-24T00:33:04.326Z,5.96
2022-11-24T00:36:06.602Z,6.06
2022-11-24T00:39:12.652Z,6.00
2022-11-24T00:42:14.929Z,5.96
2022-11-24T00:45:17.098Z,6.07
2022-11-24T00:48:19.298Z,6.12
2022-11-24T00:51:23.767Z,6.06
2022-11-24T00:54:25.998Z,6.05
2022-11-24T00:57:28.149Z,6.10
2022-11-24T01:00:30.326Z,6.07
2022-11-24T01:03:33.080Z,6.09
2022-11-24T01:06:36.206Z,6.12
2022-11-24T01:09:38.367Z,6.06
2022-11-24T01:12:40.574Z,6.05
2022-11-24T01:15:42.818Z,6.05
2022-11-24T01:18:45.524Z,6.03
2022-11-24T01:21:47.717Z,6.00
2022-11-24T01:24:49.963Z,6.02
2022-11-24T01:27:52.596Z,5.95
2022-11-24T01:31:01.986Z,5.95
2022-11-24T01:34:04.161Z,5.95
2022-11-24T01:37:06.358Z,6.00
2022-11-24T01:40:09.257Z,5.99
2022-11-24T01:43:19.639Z,5.96
2022-11-24T01:46:41.875Z,5.93
2022-11-24T01:49:50.623Z,5.93
2022-11-24T01:52:55.573Z,6.00
2022-11-24T01:55:58.103Z,5.90
2022-11-24T01:59:02.810Z,5.98
2022-11-24T02:02:05.557Z,5.95
2022-11-24T02:05:13.555Z,5.92
2022-11-24T02:08:40.334Z,5.92
2022-11-24T02:11:43.722Z,5.95
2022-11-24T02:14:46.289Z,5.90
2022-11-24T02:17:48.476Z,5.89
2022-11-24T02:20:50.781Z,5.98
2022-11-24T02:24:28.031Z,5.96
2022-11-24T02:27:30.883Z,5.95
2022-11-24T02:30:33.087Z,6.00
2022-11-24T02:33:36.642Z,5.95
2022-11-24T02:36:38.795Z,5.99
2022-11-24T02:39:41.010Z,5.93
2022-11-24T02:42:46.311Z,5.95
2022-11-24T02:45:48.513Z,5.96
2022-11-24T02:48:50.823Z,5.95
2022-11-24T02:51:52.987Z,6.02
2022-11-24T02:54:55.137Z,6.02
2022-11-24T02:57:57.408Z,6.06
2022-11-24T03:00:59.896Z,6.03
2022-11-24T03:04:02.094Z,6.03
2022-11-24T03:07:04.352Z,6.07
2022-11-24T03:10:07.103Z,6.09
2022-11-24T03:13:09.266Z,6.07
2022-11-24T03:16:11.558Z,6.07
2022-11-24T03:19:13.811Z,6.05
2022-11-24T03:22:16.061Z,6.07
2022-11-24T03:25:18.862Z,6.17
2022-11-24T03:28:21.175Z,6.16
2022-11-24T03:31:24.224Z,6.23
2022-11-24T03:34:26.436Z,6.21
2022-11-24T03:37:28.612Z,6.20
2022-11-24T03:40:30.809Z,6.17
2022-11-24T03:43:33.019Z,6.17
2022-11-24T03:46:35.262Z,6.21
2022-11-24T03:49:37.562Z,6.21
2022-11-24T03:52:39.726Z,6.27
2022-11-24T03:55:43.516Z,6.26
2022-11-24T03:58:45.697Z,6.21
2022-11-24T04:01:47.922Z,6.20
2022-11-24T04:04:52.511Z,6.21
2022-11-24T04:07:57.820Z,6.19
2022-11-24T04:11:00.042Z,6.30
2022-11-24T04:14:02.203Z,6.23
2022-11-24T04:17:04.741Z,6.21
2022-11-24T04:20:07.432Z,6.29
2022-11-24T04:23:10.885Z,6.27
2022-11-24T04:26:13.480Z,6.37
2022-11-24T04:29:15.773Z,6.37
2022-11-24T04:32:18.070Z,6.33
2022-11-24T04:35:20.959Z,6.29
2022-11-24T04:39:19.482Z,6.29
2022-11-24T04:41:47.186Z,6.38
2022-11-24T04:44:49.351Z,6.24
2022-11-24T04:47:51.575Z,6.36
2022-11-24T04:50:53.925Z,6.45
2022-11-24T04:53:56.081Z,6.40
2022-11-24T04:56:58.241Z,6.37
2022-11-24T05:00:00.395Z,6.41
2022-11-24T05:03:02.567Z,6.44
2022-11-24T05:06:05.091Z,6.36
2022-11-24T05:09:08.156Z,6.45
2022-11-24T05:12:10.381Z,6.45
2022-11-24T05:15:12.533Z,6.48
2022-11-24T05:18:18.243Z,6.43
2022-11-24T05:21:20.479Z,6.44
2022-11-24T05:24:22.680Z,6.47
2022-11-24T05:27:25.291Z,6.74
2022-11-24T05:30:28.256Z,6.88
2022-11-24T05:33:33.254Z,6.71
2022-11-24T05:36:53.547Z,6.61
2022-11-24T05:40:02.393Z,6.61
2022-11-24T05:43:04.634Z,6.64
2022-11-24T05:46:06.849Z,6.64
2022-11-24T05:49:09.084Z,6.58
2022-11-24T05:52:11.382Z,6.57
2022-11-24T05:55:15.211Z,6.54
2022-11-24T05:58:17.510Z,6.50
2022-11-24T06:01:19.753Z,6.47
2022-11-24T06:04:21.988Z,6.47
2022-11-24T06:07:24.866Z,6.45
2022-11-24T06:10:30.185Z,6.45
2022-11-24T06:13:32.543Z,6.37
2022-11-24T06:16:34.884Z,6.38
2022-11-24T06:19:41.750Z,6.44
2022-11-24T06:22:44.371Z,6.48
2022-11-24T06:25:51.375Z,6.43
2022-11-24T06:28:53.937Z,6.43
2022-11-24T06:31:56.357Z,6.44
2022-11-24T06:34:58.613Z,6.44
2022-11-24T06:38:00.824Z,6.41
2022-11-24T06:41:06.419Z,6.54
2022-11-24T06:44:08.788Z,6.48
2022-11-24T06:47:11.018Z,6.45
2022-11-24T06:50:13.319Z,6.48
2022-11-24T06:53:15.613Z,6.47
2022-11-24T06:56:20.522Z,6.40
2022-11-24T06:59:22.825Z,6.48
2022-11-24T07:02:25.102Z,6.47
2022-11-24T07:05:31.414Z,6.45
2022-11-24T07:08:33.712Z,6.44
2022-11-24T07:11:37.524Z,6.51
2022-11-24T07:14:42.664Z,6.53
2022-11-24T07:17:45.144Z,6.54
2022-11-24T07:20:47.502Z,6.71
2022-11-24T07:23:55.287Z,6.75
2022-11-24T07:26:57.755Z,6.89
2022-11-24T07:30:00.025Z,7.03
2022-11-24T07:33:03.396Z,7.13
2022-11-24T07:36:07.691Z,7.22
2022-11-24T07:39:10.012Z,7.37
2022-11-24T07:42:12.256Z,7.47
2022-11-24T07:45:15.686Z,7.49
2022-11-24T07:48:17.898Z,7.52
2022-11-24T07:51:20.119Z,7.50
2022-11-24T07:54:22.344Z,7.56
2022-11-24T07:57:24.608Z,7.63
2022-11-24T08:00:29.625Z,7.69
2022-11-24T08:03:31.963Z,7.77
2022-11-24T08:06:39.808Z,7.78
2022-11-24T08:09:44.235Z,7.66
2022-11-24T08:12:46.582Z,7.78
2022-11-24T08:15:48.844Z,7.69
2022-11-24T08:18:53.478Z,7.80
2022-11-24T08:21:55.711Z,7.77
2022-11-24T08:24:57.920Z,7.80
2022-11-24T08:28:01.639Z,7.78
2022-11-24T08:31:07.315Z,7.78
2022-11-24T08:34:10.120Z,7.91
2022-11-24T08:37:12.559Z,7.93
2022-11-24T08:40:14.945Z,7.91
2022-11-24T08:43:17.215Z,8.07
2022-11-24T08:46:20.211Z,8.04
2022-11-24T08:49:31.921Z,8.15
2022-11-24T08:52:37.143Z,8.16
2022-11-24T08:55:39.570Z,8.28
2022-11-24T08:58:45.924Z,8.34
2022-11-24T09:01:49.459Z,8.52
2022-11-24T09:04:52.483Z,8.65
2022-11-24T09:07:54.897Z,8.67
2022-11-24T09:11:02.075Z,8.76
2022-11-24T09:14:04.454Z,8.94
2022-11-24T09:17:06.919Z,9.18
2022-11-24T09:20:10.312Z,9.42
2022-11-24T09:23:13.046Z,9.72
2022-11-24T09:26:17.913Z,9.92
2022-11-24T09:29:20.266Z,9.95
2022-11-24T09:32:22.690Z,9.65
2022-11-24T09:35:27.049Z,9.44
2022-11-24T09:38:31.391Z,9.21
2022-11-24T09:41:49.740Z,9.10
2022-11-24T09:45:15.432Z,8.86
2022-11-24T09:48:38.521Z,8.69
2022-11-24T09:51:44.390Z,8.53
2022-11-24T09:54:56.745Z,8.56
2022-11-24T09:58:21.356Z,8.50
2022-11-24T10:01:37.663Z,8.53
2022-11-24T10:04:43.650Z,8.62
2022-11-24T10:08:03.714Z,8.57
2022-11-24T10:11:13.964Z,8.69
2022-11-24T10:14:37.268Z,8.83
2022-11-24T10:17:42.393Z,8.99
2022-11-24T10:21:13.856Z,8.96
2022-11-24T10:24:58.057Z,8.99
2022-11-24T10:28:13.577Z,8.86
2022-11-24T10:31:33.064Z,8.73
2022-11-24T10:34:42.172Z,8.93
2022-11-24T10:38:21.241Z,9.21
2022-11-24T10:41:36.319Z,9.30
2022-11-24T10:44:42.242Z,9.38
2022-11-24T10:47:45.477Z,9.52
2022-11-24T10:50:47.826Z,9.72
2022-11-24T10:53:54.438Z,9.51
2022-11-24T10:57:02.593Z,9.49
2022-11-24T11:00:34.502Z,9.45
2022-11-24T11:03:50.952Z,9.58
2022-11-24T11:07:07.934Z,9.63
2022-11-24T11:10:24.224Z,9.65
2022-11-24T11:13:29.549Z,9.59
2022-11-24T11:16:46.341Z,9.54
2022-11-24T11:19:56.908Z,9.55
2022-11-24T11:23:03.335Z,9.72
2022-11-24T11:26:24.081Z,10.02
2022-11-24T11:36:18.616Z,12.25
2022-11-24T11:39:31.740Z,12.46
2022-11-24T11:46:07.379Z,12.46
2022-11-24T11:49:14.326Z,12.95
2022-11-24T11:52:25.552Z,13.67
2022-11-24T11:55:49.565Z,15.23
2022-11-24T11:59:07.196Z,17.91
2022-11-24T12:02:18.729Z,19.23
2022-11-24T12:05:37.428Z,21.21
2022-11-24T12:09:17.814Z,20.21
2022-11-24T12:12:17.411Z,19.82
2022-11-24T12:15:42.187Z,20.81
2022-11-24T12:19:05.297Z,19.47
2022-11-24T12:22:48.082Z,18.81
2022-11-24T12:26:29.282Z,20.64
2022-11-24T12:30:00.205Z,19.99
2022-11-24T12:33:37.548Z,20.30
2022-11-24T12:36:54.783Z,21.62
2022-11-24T12:40:14.737Z,22.33
2022-11-24T12:43:32.050Z,20.39
2022-11-24T12:46:50.161Z,19.37
2022-11-24T12:50:08.178Z,19.49
2022-11-24T12:53:19.293Z,17.25
2022-11-24T12:56:31.519Z,15.08
2022-11-24T13:00:22.542Z,13.71
2022-11-24T13:03:36.952Z,12.65
2022-11-24T13:06:49.979Z,12.04
2022-11-24T13:10:54.683Z,12.01
2022-11-24T13:14:06.104Z,12.34
2022-11-24T13:17:39.595Z,14.65
2022-11-24T13:20:52.453Z,13.82
2022-11-24T13:24:23.107Z,14.05
2022-11-24T13:27:38.981Z,14.30
2022-11-24T13:30:43.796Z,13.17
2022-11-24T13:33:46.153Z,12.83
2022-11-24T13:36:54.333Z,12.69
2022-11-24T13:40:00.509Z,13.53
2022-11-24T13:43:02.699Z,13.50
2022-11-24T13:46:05.014Z,12.73
2022-11-24T13:49:14.004Z,12.42
2022-11-24T13:52:34.616Z,12.68
2022-11-24T13:55:39.938Z,14.01
2022-11-24T13:58:47.680Z,15.25
2022-11-24T14:01:57.630Z,14.37
2022-11-24T14:05:00.003Z,12.92
2022-11-24T14:08:03.140Z,11.95
2022-11-24T14:11:14.648Z,11.02
2022-11-24T14:14:21.751Z,10.68
2022-11-24T14:17:28.786Z,10.50
2022-11-24T14:20:31.214Z,10.29
2022-11-24T14:23:33.496Z,10.30
2022-11-24T14:26:40.127Z,10.05
2022-11-24T14:29:56.841Z,9.99
2022-11-24T14:33:03.694Z,9.85
2022-11-24T14:36:06.065Z,9.69
2022-11-24T14:39:13.452Z,9.61
2022-11-24T14:42:20.309Z,9.69
2022-11-24T14:45:22.579Z,9.55
2022-11-24T14:48:30.737Z,9.65
2022-11-24T14:51:35.798Z,9.57
2022-11-24T14:54:46.675Z,9.58
2022-11-24T14:57:48.897Z,9.47
2022-11-24T15:01:18.276Z,9.31
2022-11-24T15:05:01.131Z,9.27
2022-11-24T15:07:50.128Z,9.24
2022-11-24T15:11:01.271Z,9.21
2022-11-24T15:14:03.514Z,9.11
2022-11-24T15:17:05.801Z,9.17
2022-11-24T15:20:36.932Z,9.13
2022-11-24T15:23:43.343Z,9.08
2022-11-24T15:26:46.495Z,9.08
2022-11-24T15:29:48.704Z,9.13
2022-11-24T15:32:58.273Z,9.07
2022-11-24T15:36:00.666Z,8.93
2022-11-24T15:39:02.928Z,8.87
2022-11-24T15:42:05.201Z,8.83
2022-11-24T15:45:07.857Z,8.81
2022-11-24T15:48:13.546Z,8.75
2022-11-24T15:51:20.136Z,8.62
2022-11-24T15:54:23.907Z,8.49
2022-11-24T15:57:26.217Z,8.45
2022-11-24T16:00:28.550Z,8.46
2022-11-24T16:03:47.989Z,8.38
2022-11-24T16:06:50.942Z,8.22
2022-11-24T16:09:53.262Z,8.14
2022-11-24T16:12:55.636Z,8.08
2022-11-24T16:15:57.914Z,7.94
2022-11-24T16:19:00.179Z,7.99
2022-11-24T16:22:09.278Z,7.91
2022-11-24T16:25:12.134Z,7.94
2022-11-24T16:28:14.420Z,7.85
2022-11-24T16:31:18.096Z,7.91
2022-11-24T16:34:20.372Z,7.90
2022-11-24T16:37:22.826Z,7.98
2022-11-24T16:40:26.423Z,7.98
2022-11-24T16:43:29.356Z,7.98
2022-11-24T16:46:31.614Z,7.99
2022-11-24T16:49:33.924Z,7.94
2022-11-24T16:52:36.494Z,7.94
2022-11-24T16:55:38.707Z,7.91
2022-11-24T16:58:41.532Z,8.02
2022-11-24T17:01:46.655Z,7.95
2022-11-24T17:04:52.267Z,7.78
2022-11-24T17:07:54.506Z,7.78
2022-11-24T17:10:56.843Z,7.80
2022-11-24T17:13:59.155Z,7.83
2022-11-24T17:17:01.471Z,7.74
2022-11-24T17:20:03.993Z,7.67
2022-11-24T17:23:06.259Z,7.67
2022-11-24T17:26:12.154Z,7.62
2022-11-24T17:29:14.368Z,7.56
2022-11-24T17:32:16.631Z,7.42
2022-11-24T17:35:18.940Z,7.47
2022-11-24T17:38:21.187Z,7.40
2022-11-24T17:41:23.553Z,7.40
2022-11-24T17:44:26.918Z,7.43
2022-11-24T17:47:30.244Z,7.35
2022-11-24T17:50:32.435Z,7.36
2022-11-24T17:53:37.639Z,7.32
2022-11-24T17:56:42.625Z,7.32
2022-11-24T17:59:44.964Z,7.32
2022-11-24T18:02:47.207Z,7.29
2022-11-24T18:05:50.201Z,7.32
2022-11-24T18:08:54.167Z,7.36
2022-11-24T18:11:56.505Z,7.36
2022-11-24T18:14:58.756Z,7.27
2022-11-24T18:18:01.837Z,7.25
2022-11-24T18:21:04.402Z,7.19
2022-11-24T18:24:11.447Z,7.18
2022-11-24T18:27:13.692Z,7.15
2022-11-24T18:30:16.248Z,7.18
2022-11-24T18:33:21.368Z,7.15
2022-11-24T18:36:30.055Z,7.22
2022-11-24T18:39:32.929Z,7.23
2022-11-24T18:42:35.190Z,7.40
2022-11-24T18:45:38.662Z,7.42
2022-11-24T18:48:41.598Z,7.50
2022-11-24T18:51:44.136Z,7.63
2022-11-24T18:54:46.403Z,7.62
2022-11-24T18:57:48.696Z,7.67
2022-11-24T19:00:52.207Z,7.69
2022-11-24T19:03:57.096Z,7.62
2022-11-24T19:06:59.351Z,7.59
2022-11-24T19:10:01.590Z,7.63
2022-11-24T19:13:03.886Z,7.50
2022-11-24T19:16:11.772Z,7.50
2022-11-24T19:19:14.179Z,7.49
2022-11-24T19:22:16.482Z,7.47
2022-11-24T19:25:19.174Z,7.39
2022-11-24T19:28:21.467Z,7.43
2022-11-24T19:31:25.309Z,7.33
2022-11-24T19:34:27.608Z,7.37
2022-11-24T19:37:29.903Z,7.43
2022-11-24T19:40:32.148Z,7.47
2022-11-24T19:43:35.039Z,7.44
2022-11-24T19:46:37.752Z,7.49
2022-11-24T19:49:39.999Z,7.47
2022-11-24T19:52:42.196Z,7.46
2022-11-24T19:55:44.437Z,7.49
2022-11-24T19:58:48.075Z,7.43
2022-11-24T20:01:50.344Z,7.44
2022-11-24T20:04:52.609Z,7.40
2022-11-24T20:07:54.988Z,7.37
2022-11-24T20:11:14.376Z,7.47
2022-11-24T20:14:18.415Z,7.53
2022-11-24T20:17:20.652Z,7.54
2022-11-24T20:20:22.891Z,7.67
2022-11-24T20:23:25.124Z,7.63
2022-11-24T20:26:31.185Z,7.62
2022-11-24T20:29:34.050Z,7.70
2022-11-24T20:32:36.291Z,7.70
2022-11-24T20:35:38.490Z,7.73
2022-11-24T20:38:48.519Z,7.78
2022-11-24T20:41:51.195Z,7.80
2022-11-24T20:44:53.571Z,7.70
2022-11-24T20:47:55.797Z,7.69
2022-11-24T20:51:08.848Z,7.67
2022-11-24T20:54:13.112Z,7.63
2022-11-24T20:57:15.470Z,7.63
2022-11-24T21:00:17.838Z,7.66
2022-11-24T21:03:20.093Z,7.74
2022-11-24T21:06:22.524Z,7.77
2022-11-24T21:09:27.211Z,7.81
2022-11-24T21:12:29.499Z,7.85
2022-11-24T21:15:31.739Z,7.77
2022-11-24T21:18:33.986Z,7.75
2022-11-24T21:21:37.018Z,7.77
2022-11-24T21:24:39.240Z,7.59
2022-11-24T21:27:41.447Z,7.62
2022-11-24T21:30:43.675Z,7.57
2022-11-24T21:33:48.429Z,7.53
2022-11-24T21:36:50.742Z,7.49
2022-11-24T21:39:53.104Z,7.42
2022-11-24T21:42:55.345Z,7.42
2022-11-24T21:46:16.387Z,7.43
2022-11-24T21:49:18.674Z,7.43
2022-11-24T21:52:22.073Z,7.37
2022-11-24T21:55:24.367Z,7.37
2022-11-24T21:58:27.655Z,7.36
2022-11-24T22:01:30.166Z,7.27
2022-11-24T22:04:32.555Z,7.26
2022-11-24T22:07:35.035Z,7.15
2022-11-24T22:10:37.350Z,7.19
2022-11-24T22:13:40.172Z,7.08
2022-11-24T22:16:42.545Z,7.06
2022-11-24T22:19:44.816Z,7.06
2022-11-24T22:22:47.095Z,7.01
2022-11-24T22:25:49.323Z,6.99
2022-11-24T22:28:53.005Z,6.92
2022-11-24T22:31:55.250Z,6.92
2022-11-24T22:34:57.509Z,6.88
2022-11-24T22:37:59.697Z,6.81
2022-11-24T22:41:09.810Z,6.72
2022-11-24T22:44:11.991Z,6.74
2022-11-24T22:47:14.236Z,6.65
2022-11-24T22:50:16.455Z,6.67
2022-11-24T22:53:18.697Z,6.67
2022-11-24T22:56:21.589Z,6.61
2022-11-24T22:59:23.919Z,6.54
2022-11-24T23:02:26.113Z,6.55
2022-11-24T23:05:29.256Z,6.44
2022-11-24T23:08:33.710Z,6.36
2022-11-24T23:11:38.813Z,6.29
2022-11-24T23:14:41.000Z,6.23
2022-11-24T23:17:43.254Z,6.19
2022-11-24T23:20:45.484Z,6.24
2022-11-24T23:23:48.640Z,6.26
2022-11-24T23:26:50.851Z,6.16
2022-11-24T23:29:53.106Z,6.02
2022-11-24T23:32:55.383Z,6.14
2022-11-24T23:36:12.423Z,6.20
2022-11-24T23:39:15.076Z,6.29
2022-11-24T23:42:17.284Z,6.41
2022-11-24T23:45:19.531Z,6.43
2022-11-24T23:48:21.788Z,6.51
2022-11-24T23:51:26.862Z,6.58
2022-11-24T23:54:29.072Z,6.68
2022-11-24T23:57:31.563Z,6.68
